sensor_id;sensor_type;location;lat;lon;timestamp;P1;durP1;ratioP1;P2;durP2;ratioP2
16099;SDS011;8154;50.830;12.082;2022-07-29T00:02:27;2.40;;;1.10;;
16099;SDS011;8154;50.830;12.082;2022-07-29T00:05:12;2.20;;;1.35;;
16099;SDS011;8154;50.830;12.082;2022-07-29T00:07:57;1.83;;;1.40;;
16099;SDS011;8154;50.830;12.082;2022-07-29T00:10:42;2.25;;;1.30;;
16099;SDS011;8154;50.830;12.082;2022-07-29T00:13:27;1.90;;;1.30;;
16099;SDS011;8154;50.830;12.082;2022-07-29T00:16:11;2.45;;;1.25;;
16099;SDS011;8154;50.830;12.082;2022-07-29T00:18:57;1.58;;;1.30;;
16099;SDS011;8154;50.830;12.082;2022-07-29T00:21:41;2.67;;;1.23;;
16099;SDS011;8154;50.830;12.082;2022-07-29T00:24:26;2.53;;;1.20;;
16099;SDS011;8154;50.830;12.082;2022-07-29T00:27:10;1.50;;;1.40;;
16099;SDS011;8154;50.830;12.082;2022-07-29T00:29:55;2.25;;;1.20;;
16099;SDS011;8154;50.830;12.082;2022-07-29T00:32:39;2.30;;;1.27;;
16099;SDS011;8154;50.830;12.082;2022-07-29T00:35:24;2.33;;;1.25;;
16099;SDS011;8154;50.830;12.082;2022-07-29T00:38:27;3.50;;;1.50;;
16099;SDS011;8154;50.830;12.082;2022-07-29T00:41:12;2.30;;;1.10;;
16099;SDS011;8154;50.830;12.082;2022-07-29T00:43:56;3.20;;;1.30;;
16099;SDS011;8154;50.830;12.082;2022-07-29T00:46:41;2.58;;;1.30;;
16099;SDS011;8154;50.830;12.082;2022-07-29T00:49:26;2.67;;;1.50;;
16099;SDS011;8154;50.830;12.082;2022-07-29T00:52:10;1.73;;;1.20;;
16099;SDS011;8154;50.830;12.082;2022-07-29T00:54:59;1.55;;;1.20;;
16099;SDS011;8154;50.830;12.082;2022-07-29T00:57:43;2.00;;;1.27;;
16099;SDS011;8154;50.830;12.082;2022-07-29T01:00:29;2.10;;;1.20;;
16099;SDS011;8154;50.830;12.082;2022-07-29T01:03:14;1.33;;;1.10;;
16099;SDS011;8154;50.830;12.082;2022-07-29T01:05:59;2.70;;;1.20;;
16099;SDS011;8154;50.830;12.082;2022-07-29T01:08:44;2.50;;;1.20;;
16099;SDS011;8154;50.830;12.082;2022-07-29T01:11:31;1.33;;;1.17;;
16099;SDS011;8154;50.830;12.082;2022-07-29T01:14:17;1.48;;;1.10;;
16099;SDS011;8154;50.830;12.082;2022-07-29T01:17:12;2.22;;;1.20;;
16099;SDS011;8154;50.830;12.082;2022-07-29T01:29:43;1.70;;;1.13;;
16099;SDS011;8154;50.830;12.082;2022-07-29T01:32:33;1.92;;;1.20;;
16099;SDS011;8154;50.830;12.082;2022-07-29T01:35:26;2.65;;;1.50;;
16099;SDS011;8154;50.830;12.082;2022-07-29T01:38:17;2.13;;;1.27;;
16099;SDS011;8154;50.830;12.082;2022-07-29T01:41:06;1.48;;;1.23;;
16099;SDS011;8154;50.830;12.082;2022-07-29T01:43:57;1.35;;;1.20;;
16099;SDS011;8154;50.830;12.082;2022-07-29T01:46:50;1.77;;;1.30;;
16099;SDS011;8154;50.830;12.082;2022-07-29T01:49:39;1.67;;;1.23;;
16099;SDS011;8154;50.830;12.082;2022-07-29T01:52:47;2.40;;;1.10;;
16099;SDS011;8154;50.830;12.082;2022-07-29T01:55:40;2.90;;;1.40;;
16099;SDS011;8154;50.830;12.082;2022-07-29T01:58:28;1.80;;;1.30;;
16099;SDS011;8154;50.830;12.082;2022-07-29T02:01:15;2.20;;;1.20;;
16099;SDS011;8154;50.830;12.082;2022-07-29T02:04:02;2.22;;;1.35;;
16099;SDS011;8154;50.830;12.082;2022-07-29T02:06:49;2.33;;;1.20;;
16099;SDS011;8154;50.830;12.082;2022-07-29T02:09:36;1.25;;;1.10;;
16099;SDS011;8154;50.830;12.082;2022-07-29T02:12:23;2.35;;;1.30;;
16099;SDS011;8154;50.830;12.082;2022-07-29T02:15:09;2.25;;;1.30;;
16099;SDS011;8154;50.830;12.082;2022-07-29T02:17:56;2.17;;;1.30;;
16099;SDS011;8154;50.830;12.082;2022-07-29T02:20:46;2.22;;;1.33;;
16099;SDS011;8154;50.830;12.082;2022-07-29T02:23:33;1.38;;;1.10;;
16099;SDS011;8154;50.830;12.082;2022-07-29T02:26:19;1.35;;;1.25;;
16099;SDS011;8154;50.830;12.082;2022-07-29T02:29:05;3.72;;;1.30;;
16099;SDS011;8154;50.830;12.082;2022-07-29T02:31:55;1.33;;;1.10;;
16099;SDS011;8154;50.830;12.082;2022-07-29T02:34:43;1.17;;;1.05;;
16099;SDS011;8154;50.830;12.082;2022-07-29T02:37:30;1.85;;;1.30;;
16099;SDS011;8154;50.830;12.082;2022-07-29T02:40:16;3.40;;;1.30;;
16099;SDS011;8154;50.830;12.082;2022-07-29T02:43:01;2.40;;;1.40;;
16099;SDS011;8154;50.830;12.082;2022-07-29T02:45:51;1.52;;;1.30;;
16099;SDS011;8154;50.830;12.082;2022-07-29T02:48:37;1.42;;;1.23;;
16099;SDS011;8154;50.830;12.082;2022-07-29T02:51:32;2.10;;;1.38;;
16099;SDS011;8154;50.830;12.082;2022-07-29T02:57:23;2.58;;;1.50;;
16099;SDS011;8154;50.830;12.082;2022-07-29T03:00:16;1.77;;;1.30;;
16099;SDS011;8154;50.830;12.082;2022-07-29T03:03:01;2.45;;;1.30;;
16099;SDS011;8154;50.830;12.082;2022-07-29T03:05:49;3.10;;;1.40;;
16099;SDS011;8154;50.830;12.082;2022-07-29T03:08:39;2.45;;;1.40;;
16099;SDS011;8154;50.830;12.082;2022-07-29T03:11:25;2.17;;;1.50;;
16099;SDS011;8154;50.830;12.082;2022-07-29T03:14:10;2.92;;;1.50;;
16099;SDS011;8154;50.830;12.082;2022-07-29T03:16:56;2.20;;;1.55;;
16099;SDS011;8154;50.830;12.082;2022-07-29T03:19:42;2.90;;;1.30;;
16099;SDS011;8154;50.830;12.082;2022-07-29T03:22:26;1.40;;;1.20;;
16099;SDS011;8154;50.830;12.082;2022-07-29T03:25:12;2.40;;;1.45;;
16099;SDS011;8154;50.830;12.082;2022-07-29T03:27:58;3.00;;;1.48;;
16099;SDS011;8154;50.830;12.082;2022-07-29T03:30:43;1.38;;;1.23;;
16099;SDS011;8154;50.830;12.082;2022-07-29T03:33:27;1.85;;;1.30;;
16099;SDS011;8154;50.830;12.082;2022-07-29T03:36:14;1.60;;;1.27;;
16099;SDS011;8154;50.830;12.082;2022-07-29T03:38:59;2.97;;;1.50;;
16099;SDS011;8154;50.830;12.082;2022-07-29T03:41:45;1.98;;;1.40;;
16099;SDS011;8154;50.830;12.082;2022-07-29T03:44:31;2.10;;;1.20;;
16099;SDS011;8154;50.830;12.082;2022-07-29T03:47:17;1.73;;;1.30;;
16099;SDS011;8154;50.830;12.082;2022-07-29T03:50:07;2.08;;;1.23;;
16099;SDS011;8154;50.830;12.082;2022-07-29T03:52:55;2.47;;;1.40;;
16099;SDS011;8154;50.830;12.082;2022-07-29T03:55:41;2.00;;;1.40;;
16099;SDS011;8154;50.830;12.082;2022-07-29T03:58:30;1.60;;;1.40;;
16099;SDS011;8154;50.830;12.082;2022-07-29T04:01:16;2.63;;;1.50;;
16099;SDS011;8154;50.830;12.082;2022-07-29T04:04:05;2.47;;;1.40;;
16099;SDS011;8154;50.830;12.082;2022-07-29T04:06:50;1.30;;;1.20;;
16099;SDS011;8154;50.830;12.082;2022-07-29T04:09:35;1.52;;;1.20;;
16099;SDS011;8154;50.830;12.082;2022-07-29T04:12:20;2.33;;;1.30;;
16099;SDS011;8154;50.830;12.082;2022-07-29T04:15:05;2.60;;;1.40;;
16099;SDS011;8154;50.830;12.082;2022-07-29T04:17:50;2.08;;;1.40;;
16099;SDS011;8154;50.830;12.082;2022-07-29T04:20:38;1.88;;;1.40;;
16099;SDS011;8154;50.830;12.082;2022-07-29T04:23:27;3.05;;;1.20;;
16099;SDS011;8154;50.830;12.082;2022-07-29T04:26:23;2.47;;;1.38;;
16099;SDS011;8154;50.830;12.082;2022-07-29T04:29:08;3.17;;;1.48;;
16099;SDS011;8154;50.830;12.082;2022-07-29T04:31:56;2.53;;;1.30;;
16099;SDS011;8154;50.830;12.082;2022-07-29T04:34:40;1.75;;;1.25;;
16099;SDS011;8154;50.830;12.082;2022-07-29T04:37:25;2.67;;;1.55;;
16099;SDS011;8154;50.830;12.082;2022-07-29T04:40:09;2.13;;;1.40;;
16099;SDS011;8154;50.830;12.082;2022-07-29T04:42:54;1.98;;;1.30;;
16099;SDS011;8154;50.830;12.082;2022-07-29T04:45:39;1.58;;;1.27;;
16099;SDS011;8154;50.830;12.082;2022-07-29T04:48:24;2.50;;;1.50;;
16099;SDS011;8154;50.830;12.082;2022-07-29T04:51:09;3.35;;;1.58;;
16099;SDS011;8154;50.830;12.082;2022-07-29T04:53:54;2.05;;;1.30;;
16099;SDS011;8154;50.830;12.082;2022-07-29T04:56:40;3.65;;;1.50;;
16099;SDS011;8154;50.830;12.082;2022-07-29T04:59:25;1.95;;;1.42;;
16099;SDS011;8154;50.830;12.082;2022-07-29T05:02:11;2.67;;;1.60;;
16099;SDS011;8154;50.830;12.082;2022-07-29T05:04:56;2.65;;;1.50;;
16099;SDS011;8154;50.830;12.082;2022-07-29T05:07:40;2.63;;;1.63;;
16099;SDS011;8154;50.830;12.082;2022-07-29T05:10:25;1.88;;;1.40;;
16099;SDS011;8154;50.830;12.082;2022-07-29T05:13:10;2.63;;;1.50;;
16099;SDS011;8154;50.830;12.082;2022-07-29T05:15:54;2.45;;;1.50;;
16099;SDS011;8154;50.830;12.082;2022-07-29T05:18:46;5.28;;;1.50;;
16099;SDS011;8154;50.830;12.082;2022-07-29T05:21:31;3.13;;;1.60;;
16099;SDS011;8154;50.830;12.082;2022-07-29T05:24:17;3.55;;;1.60;;
16099;SDS011;8154;50.830;12.082;2022-07-29T05:27:01;4.18;;;1.45;;
16099;SDS011;8154;50.830;12.082;2022-07-29T05:29:46;2.55;;;1.60;;
16099;SDS011;8154;50.830;12.082;2022-07-29T05:32:30;1.83;;;1.35;;
16099;SDS011;8154;50.830;12.082;2022-07-29T05:35:17;2.83;;;1.48;;
16099;SDS011;8154;50.830;12.082;2022-07-29T05:38:01;2.47;;;1.60;;
16099;SDS011;8154;50.830;12.082;2022-07-29T05:40:46;3.53;;;1.33;;
16099;SDS011;8154;50.830;12.082;2022-07-29T05:43:31;2.38;;;1.58;;
16099;SDS011;8154;50.830;12.082;2022-07-29T05:46:16;2.28;;;1.50;;
16099;SDS011;8154;50.830;12.082;2022-07-29T05:49:01;1.75;;;1.45;;
16099;SDS011;8154;50.830;12.082;2022-07-29T05:51:47;2.13;;;1.40;;
16099;SDS011;8154;50.830;12.082;2022-07-29T05:54:32;2.97;;;1.52;;
16099;SDS011;8154;50.830;12.082;2022-07-29T05:57:19;2.80;;;1.50;;
16099;SDS011;8154;50.830;12.082;2022-07-29T06:00:05;3.65;;;1.40;;
16099;SDS011;8154;50.830;12.082;2022-07-29T06:02:50;2.17;;;1.48;;
16099;SDS011;8154;50.830;12.082;2022-07-29T06:05:34;3.38;;;1.70;;
16099;SDS011;8154;50.830;12.082;2022-07-29T06:08:19;2.88;;;1.80;;
16099;SDS011;8154;50.830;12.082;2022-07-29T06:11:07;2.55;;;1.70;;
16099;SDS011;8154;50.830;12.082;2022-07-29T06:13:58;3.05;;;1.80;;
16099;SDS011;8154;50.830;12.082;2022-07-29T06:16:43;2.90;;;1.90;;
16099;SDS011;8154;50.830;12.082;2022-07-29T06:19:28;3.45;;;2.30;;
16099;SDS011;8154;50.830;12.082;2022-07-29T06:22:14;3.95;;;2.17;;
16099;SDS011;8154;50.830;12.082;2022-07-29T06:25:01;3.08;;;2.17;;
16099;SDS011;8154;50.830;12.082;2022-07-29T06:27:46;3.65;;;2.65;;
16099;SDS011;8154;50.830;12.082;2022-07-29T06:30:32;3.47;;;2.50;;
16099;SDS011;8154;50.830;12.082;2022-07-29T06:33:18;5.07;;;2.40;;
16099;SDS011;8154;50.830;12.082;2022-07-29T06:36:05;3.45;;;2.50;;
16099;SDS011;8154;50.830;12.082;2022-07-29T06:38:50;3.50;;;2.20;;
16099;SDS011;8154;50.830;12.082;2022-07-29T06:41:37;4.03;;;2.10;;
16099;SDS011;8154;50.830;12.082;2022-07-29T06:44:21;4.65;;;2.10;;
16099;SDS011;8154;50.830;12.082;2022-07-29T06:47:06;4.93;;;2.50;;
16099;SDS011;8154;50.830;12.082;2022-07-29T06:49:50;4.75;;;2.70;;
16099;SDS011;8154;50.830;12.082;2022-07-29T06:52:36;2.90;;;2.40;;
16099;SDS011;8154;50.830;12.082;2022-07-29T06:55:20;3.97;;;2.58;;
16099;SDS011;8154;50.830;12.082;2022-07-29T06:58:06;2.92;;;2.33;;
16099;SDS011;8154;50.830;12.082;2022-07-29T07:00:52;3.28;;;2.10;;
16099;SDS011;8154;50.830;12.082;2022-07-29T07:03:37;4.63;;;2.20;;
16099;SDS011;8154;50.830;12.082;2022-07-29T07:06:21;3.30;;;2.47;;
16099;SDS011;8154;50.830;12.082;2022-07-29T07:09:06;2.97;;;2.22;;
16099;SDS011;8154;50.830;12.082;2022-07-29T07:11:51;2.90;;;2.30;;
16099;SDS011;8154;50.830;12.082;2022-07-29T07:14:36;3.47;;;2.20;;
16099;SDS011;8154;50.830;12.082;2022-07-29T07:17:21;4.05;;;2.50;;
16099;SDS011;8154;50.830;12.082;2022-07-29T07:20:06;3.80;;;2.30;;
16099;SDS011;8154;50.830;12.082;2022-07-29T07:22:51;2.38;;;1.95;;
16099;SDS011;8154;50.830;12.082;2022-07-29T07:25:37;3.25;;;2.22;;
16099;SDS011;8154;50.830;12.082;2022-07-29T07:28:22;2.83;;;2.00;;
16099;SDS011;8154;50.830;12.082;2022-07-29T07:31:10;3.58;;;2.08;;
16099;SDS011;8154;50.830;12.082;2022-07-29T07:33:55;3.50;;;2.22;;
16099;SDS011;8154;50.830;12.082;2022-07-29T07:36:41;4.32;;;2.13;;
16099;SDS011;8154;50.830;12.082;2022-07-29T07:39:27;3.50;;;2.20;;
16099;SDS011;8154;50.830;12.082;2022-07-29T07:42:12;4.32;;;2.10;;
16099;SDS011;8154;50.830;12.082;2022-07-29T07:44:57;3.33;;;2.15;;
16099;SDS011;8154;50.830;12.082;2022-07-29T07:47:43;3.08;;;2.17;;
16099;SDS011;8154;50.830;12.082;2022-07-29T07:50:28;5.25;;;2.15;;
16099;SDS011;8154;50.830;12.082;2022-07-29T07:53:14;2.97;;;2.20;;
16099;SDS011;8154;50.830;12.082;2022-07-29T07:56:00;2.95;;;2.10;;
16099;SDS011;8154;50.830;12.082;2022-07-29T07:58:46;5.85;;;2.30;;
16099;SDS011;8154;50.830;12.082;2022-07-29T08:01:30;3.60;;;2.03;;
16099;SDS011;8154;50.830;12.082;2022-07-29T08:04:15;2.45;;;1.90;;
16099;SDS011;8154;50.830;12.082;2022-07-29T08:07:00;3.33;;;2.00;;
16099;SDS011;8154;50.830;12.082;2022-07-29T08:09:46;4.85;;;2.08;;
16099;SDS011;8154;50.830;12.082;2022-07-29T08:12:34;7.15;;;2.00;;
16099;SDS011;8154;50.830;12.082;2022-07-29T08:15:18;3.95;;;1.92;;
16099;SDS011;8154;50.830;12.082;2022-07-29T08:18:04;2.50;;;2.10;;
16099;SDS011;8154;50.830;12.082;2022-07-29T08:20:48;3.65;;;1.95;;
16099;SDS011;8154;50.830;12.082;2022-07-29T08:23:34;3.05;;;2.10;;
16099;SDS011;8154;50.830;12.082;2022-07-29T08:26:29;3.00;;;2.40;;
16099;SDS011;8154;50.830;12.082;2022-07-29T08:29:14;3.17;;;2.05;;
16099;SDS011;8154;50.830;12.082;2022-07-29T08:32:00;2.42;;;1.95;;
16099;SDS011;8154;50.830;12.082;2022-07-29T08:34:44;2.38;;;1.90;;
16099;SDS011;8154;50.830;12.082;2022-07-29T08:37:30;3.45;;;1.95;;
16099;SDS011;8154;50.830;12.082;2022-07-29T08:40:16;3.28;;;2.20;;
16099;SDS011;8154;50.830;12.082;2022-07-29T08:43:05;4.25;;;2.10;;
16099;SDS011;8154;50.830;12.082;2022-07-29T08:45:52;3.17;;;2.08;;
16099;SDS011;8154;50.830;12.082;2022-07-29T08:48:36;4.47;;;2.05;;
16099;SDS011;8154;50.830;12.082;2022-07-29T08:51:26;3.65;;;2.10;;
16099;SDS011;8154;50.830;12.082;2022-07-29T08:54:12;3.40;;;2.20;;
16099;SDS011;8154;50.830;12.082;2022-07-29T08:57:01;2.97;;;2.10;;
16099;SDS011;8154;50.830;12.082;2022-07-29T08:59:46;2.88;;;2.03;;
16099;SDS011;8154;50.830;12.082;2022-07-29T09:02:44;3.40;;;2.17;;
16099;SDS011;8154;50.830;12.082;2022-07-29T09:05:35;2.10;;;1.90;;
16099;SDS011;8154;50.830;12.082;2022-07-29T09:08:23;3.28;;;2.08;;
16099;SDS011;8154;50.830;12.082;2022-07-29T09:11:08;4.55;;;2.13;;
16099;SDS011;8154;50.830;12.082;2022-07-29T09:13:55;2.53;;;1.92;;
16099;SDS011;8154;50.830;12.082;2022-07-29T09:16:51;4.30;;;2.13;;
16099;SDS011;8154;50.830;12.082;2022-07-29T09:19:38;4.15;;;2.30;;
16099;SDS011;8154;50.830;12.082;2022-07-29T09:22:29;3.75;;;2.28;;
16099;SDS011;8154;50.830;12.082;2022-07-29T09:25:37;4.07;;;2.20;;
16099;SDS011;8154;50.830;12.082;2022-07-29T09:28:21;3.40;;;2.20;;
16099;SDS011;8154;50.830;12.082;2022-07-29T09:31:07;4.32;;;2.20;;
16099;SDS011;8154;50.830;12.082;2022-07-29T09:33:57;3.83;;;2.20;;
16099;SDS011;8154;50.830;12.082;2022-07-29T09:36:45;2.33;;;1.92;;
16099;SDS011;8154;50.830;12.082;2022-07-29T09:42:32;2.95;;;2.20;;
16099;SDS011;8154;50.830;12.082;2022-07-29T09:48:14;4.72;;;2.13;;
16099;SDS011;8154;50.830;12.082;2022-07-29T09:51:04;4.43;;;2.17;;
16099;SDS011;8154;50.830;12.082;2022-07-29T09:53:50;3.10;;;2.20;;
16099;SDS011;8154;50.830;12.082;2022-07-29T09:56:41;3.97;;;2.22;;
16099;SDS011;8154;50.830;12.082;2022-07-29T09:59:26;2.53;;;2.30;;
16099;SDS011;8154;50.830;12.082;2022-07-29T10:02:13;3.30;;;2.30;;
16099;SDS011;8154;50.830;12.082;2022-07-29T10:05:00;3.85;;;2.28;;
16099;SDS011;8154;50.830;12.082;2022-07-29T10:07:51;2.45;;;2.20;;
16099;SDS011;8154;50.830;12.082;2022-07-29T10:10:38;3.90;;;2.35;;
16099;SDS011;8154;50.830;12.082;2022-07-29T10:13:24;2.78;;;2.25;;
16099;SDS011;8154;50.830;12.082;2022-07-29T10:16:11;2.92;;;2.17;;
16099;SDS011;8154;50.830;12.082;2022-07-29T10:18:57;3.50;;;2.30;;
16099;SDS011;8154;50.830;12.082;2022-07-29T10:21:43;4.40;;;2.30;;
16099;SDS011;8154;50.830;12.082;2022-07-29T10:24:29;3.58;;;2.20;;
16099;SDS011;8154;50.830;12.082;2022-07-29T10:27:14;2.50;;;2.15;;
16099;SDS011;8154;50.830;12.082;2022-07-29T10:29:59;2.88;;;2.15;;
16099;SDS011;8154;50.830;12.082;2022-07-29T10:36:09;4.45;;;2.60;;
16099;SDS011;8154;50.830;12.082;2022-07-29T10:42:21;3.17;;;2.30;;
16099;SDS011;8154;50.830;12.082;2022-07-29T10:45:08;4.70;;;2.33;;
16099;SDS011;8154;50.830;12.082;2022-07-29T10:48:03;2.80;;;2.28;;
16099;SDS011;8154;50.830;12.082;2022-07-29T10:53:49;2.60;;;2.40;;
16099;SDS011;8154;50.830;12.082;2022-07-29T10:56:36;5.57;;;2.65;;
16099;SDS011;8154;50.830;12.082;2022-07-29T11:05:18;3.00;;;2.65;;
16099;SDS011;8154;50.830;12.082;2022-07-29T11:14:12;2.92;;;2.45;;
16099;SDS011;8154;50.830;12.082;2022-07-29T11:16:58;3.03;;;2.72;;
16099;SDS011;8154;50.830;12.082;2022-07-29T11:19:50;3.75;;;2.75;;
16099;SDS011;8154;50.830;12.082;2022-07-29T11:22:36;3.08;;;2.70;;
16099;SDS011;8154;50.830;12.082;2022-07-29T11:25:21;2.90;;;2.67;;
16099;SDS011;8154;50.830;12.082;2022-07-29T11:28:13;4.00;;;2.80;;
16099;SDS011;8154;50.830;12.082;2022-07-29T11:31:02;3.92;;;2.63;;
16099;SDS011;8154;50.830;12.082;2022-07-29T11:33:49;2.92;;;2.67;;
16099;SDS011;8154;50.830;12.082;2022-07-29T11:36:34;3.90;;;2.83;;
16099;SDS011;8154;50.830;12.082;2022-07-29T11:39:26;3.08;;;2.78;;
16099;SDS011;8154;50.830;12.082;2022-07-29T11:45:12;4.18;;;2.60;;
16099;SDS011;8154;50.830;12.082;2022-07-29T11:47:58;4.47;;;2.90;;
16099;SDS011;8154;50.830;12.082;2022-07-29T11:50:44;3.63;;;2.60;;
16099;SDS011;8154;50.830;12.082;2022-07-29T11:53:28;3.83;;;2.90;;
16099;SDS011;8154;50.830;12.082;2022-07-29T11:56:14;2.92;;;2.67;;
16099;SDS011;8154;50.830;12.082;2022-07-29T11:59:06;3.15;;;2.85;;
16099;SDS011;8154;50.830;12.082;2022-07-29T12:01:57;3.45;;;2.80;;
16099;SDS011;8154;50.830;12.082;2022-07-29T12:04:49;3.10;;;2.80;;
16099;SDS011;8154;50.830;12.082;2022-07-29T12:07:39;5.80;;;2.60;;
16099;SDS011;8154;50.830;12.082;2022-07-29T12:10:30;3.15;;;2.83;;
16099;SDS011;8154;50.830;12.082;2022-07-29T12:13:15;3.47;;;2.60;;
16099;SDS011;8154;50.830;12.082;2022-07-29T12:16:02;3.70;;;3.10;;
16099;SDS011;8154;50.830;12.082;2022-07-29T12:18:58;3.40;;;3.10;;
16099;SDS011;8154;50.830;12.082;2022-07-29T12:21:47;3.95;;;3.00;;
16099;SDS011;8154;50.830;12.082;2022-07-29T12:24:43;5.15;;;3.00;;
16099;SDS011;8154;50.830;12.082;2022-07-29T12:27:29;4.18;;;3.10;;
16099;SDS011;8154;50.830;12.082;2022-07-29T12:30:18;4.03;;;3.10;;
16099;SDS011;8154;50.830;12.082;2022-07-29T12:33:09;3.35;;;2.97;;
16099;SDS011;8154;50.830;12.082;2022-07-29T12:35:59;3.75;;;3.20;;
16099;SDS011;8154;50.830;12.082;2022-07-29T12:38:46;3.20;;;3.00;;
16099;SDS011;8154;50.830;12.082;2022-07-29T12:41:34;3.20;;;3.00;;
16099;SDS011;8154;50.830;12.082;2022-07-29T12:44:20;8.23;;;3.10;;
16099;SDS011;8154;50.830;12.082;2022-07-29T12:47:05;4.38;;;3.20;;
16099;SDS011;8154;50.830;12.082;2022-07-29T12:49:50;9.70;;;3.28;;
16099;SDS011;8154;50.830;12.082;2022-07-29T12:53:10;5.40;;;3.22;;
16099;SDS011;8154;50.830;12.082;2022-07-29T12:55:59;4.03;;;3.35;;
16099;SDS011;8154;50.830;12.082;2022-07-29T12:58:49;5.72;;;3.25;;
16099;SDS011;8154;50.830;12.082;2022-07-29T13:01:36;3.78;;;3.10;;
16099;SDS011;8154;50.830;12.082;2022-07-29T13:04:30;3.55;;;3.25;;
16099;SDS011;8154;50.830;12.082;2022-07-29T13:07:16;3.90;;;3.10;;
16099;SDS011;8154;50.830;12.082;2022-07-29T13:10:20;3.50;;;3.00;;
16099;SDS011;8154;50.830;12.082;2022-07-29T13:16:05;4.13;;;3.20;;
16099;SDS011;8154;50.830;12.082;2022-07-29T13:19:12;3.42;;;3.13;;
16099;SDS011;8154;50.830;12.082;2022-07-29T13:21:56;3.55;;;3.10;;
16099;SDS011;8154;50.830;12.082;2022-07-29T13:24:48;4.78;;;2.88;;
16099;SDS011;8154;50.830;12.082;2022-07-29T13:27:43;3.35;;;3.00;;
16099;SDS011;8154;50.830;12.082;2022-07-29T13:30:29;3.30;;;3.00;;
16099;SDS011;8154;50.830;12.082;2022-07-29T13:33:14;4.07;;;3.00;;
16099;SDS011;8154;50.830;12.082;2022-07-29T13:35:59;3.92;;;3.40;;
16099;SDS011;8154;50.830;12.082;2022-07-29T13:38:44;3.75;;;3.00;;
16099;SDS011;8154;50.830;12.082;2022-07-29T13:41:29;5.57;;;3.28;;
16099;SDS011;8154;50.830;12.082;2022-07-29T13:44:13;4.13;;;3.15;;
16099;SDS011;8154;50.830;12.082;2022-07-29T13:46:58;5.65;;;2.97;;
16099;SDS011;8154;50.830;12.082;2022-07-29T13:49:43;3.65;;;2.97;;
16099;SDS011;8154;50.830;12.082;2022-07-29T13:52:28;4.65;;;2.85;;
16099;SDS011;8154;50.830;12.082;2022-07-29T13:55:14;3.63;;;2.90;;
16099;SDS011;8154;50.830;12.082;2022-07-29T13:57:59;4.07;;;3.00;;
16099;SDS011;8154;50.830;12.082;2022-07-29T14:00:44;3.40;;;3.10;;
16099;SDS011;8154;50.830;12.082;2022-07-29T14:03:31;4.07;;;3.00;;
16099;SDS011;8154;50.830;12.082;2022-07-29T14:06:15;6.32;;;3.20;;
16099;SDS011;8154;50.830;12.082;2022-07-29T14:09:00;4.72;;;2.90;;
16099;SDS011;8154;50.830;12.082;2022-07-29T14:11:45;3.35;;;2.80;;
16099;SDS011;8154;50.830;12.082;2022-07-29T14:14:36;3.63;;;2.95;;
16099;SDS011;8154;50.830;12.082;2022-07-29T14:17:34;3.40;;;3.10;;
16099;SDS011;8154;50.830;12.082;2022-07-29T14:20:26;3.15;;;2.85;;
16099;SDS011;8154;50.830;12.082;2022-07-29T14:23:15;3.42;;;3.00;;
16099;SDS011;8154;50.830;12.082;2022-07-29T14:26:00;3.30;;;3.00;;
16099;SDS011;8154;50.830;12.082;2022-07-29T14:28:45;3.10;;;2.80;;
16099;SDS011;8154;50.830;12.082;2022-07-29T14:31:30;3.63;;;2.97;;
16099;SDS011;8154;50.830;12.082;2022-07-29T14:34:14;4.00;;;2.80;;
16099;SDS011;8154;50.830;12.082;2022-07-29T14:37:00;3.40;;;2.75;;
16099;SDS011;8154;50.830;12.082;2022-07-29T14:39:46;3.03;;;2.53;;
16099;SDS011;8154;50.830;12.082;2022-07-29T14:42:32;3.25;;;2.60;;
16099;SDS011;8154;50.830;12.082;2022-07-29T14:45:17;3.20;;;2.67;;
16099;SDS011;8154;50.830;12.082;2022-07-29T14:48:02;3.53;;;2.70;;
16099;SDS011;8154;50.830;12.082;2022-07-29T14:50:47;3.00;;;2.70;;
16099;SDS011;8154;50.830;12.082;2022-07-29T14:53:33;3.80;;;2.70;;
16099;SDS011;8154;50.830;12.082;2022-07-29T14:56:18;2.67;;;2.40;;
16099;SDS011;8154;50.830;12.082;2022-07-29T14:59:05;2.97;;;2.33;;
16099;SDS011;8154;50.830;12.082;2022-07-29T15:01:50;3.15;;;2.30;;
16099;SDS011;8154;50.830;12.082;2022-07-29T15:04:36;2.53;;;2.20;;
16099;SDS011;8154;50.830;12.082;2022-07-29T15:07:22;3.55;;;2.13;;
16099;SDS011;8154;50.830;12.082;2022-07-29T15:10:07;2.63;;;2.30;;
16099;SDS011;8154;50.830;12.082;2022-07-29T15:12:55;2.53;;;2.30;;
16099;SDS011;8154;50.830;12.082;2022-07-29T15:15:40;2.30;;;1.92;;
16099;SDS011;8154;50.830;12.082;2022-07-29T15:18:25;2.30;;;2.10;;
16099;SDS011;8154;50.830;12.082;2022-07-29T15:21:10;2.38;;;2.15;;
16099;SDS011;8154;50.830;12.082;2022-07-29T15:23:55;2.28;;;2.08;;
16099;SDS011;8154;50.830;12.082;2022-07-29T15:26:40;2.85;;;2.28;;
16099;SDS011;8154;50.830;12.082;2022-07-29T15:29:26;2.55;;;2.35;;
16099;SDS011;8154;50.830;12.082;2022-07-29T15:32:11;2.55;;;2.03;;
16099;SDS011;8154;50.830;12.082;2022-07-29T15:34:57;2.55;;;2.35;;
16099;SDS011;8154;50.830;12.082;2022-07-29T15:37:42;2.50;;;2.30;;
16099;SDS011;8154;50.830;12.082;2022-07-29T15:40:27;2.55;;;2.20;;
16099;SDS011;8154;50.830;12.082;2022-07-29T15:43:14;2.30;;;2.10;;
16099;SDS011;8154;50.830;12.082;2022-07-29T15:45:59;2.40;;;2.15;;
16099;SDS011;8154;50.830;12.082;2022-07-29T15:49:04;3.15;;;2.30;;
16099;SDS011;8154;50.830;12.082;2022-07-29T15:51:59;3.22;;;2.30;;
16099;SDS011;8154;50.830;12.082;2022-07-29T15:54:58;2.40;;;2.20;;
16099;SDS011;8154;50.830;12.082;2022-07-29T15:57:47;2.30;;;2.10;;
16099;SDS011;8154;50.830;12.082;2022-07-29T16:00:39;2.40;;;2.20;;
16099;SDS011;8154;50.830;12.082;2022-07-29T16:03:25;2.50;;;2.30;;
16099;SDS011;8154;50.830;12.082;2022-07-29T16:06:17;2.78;;;2.55;;
16099;SDS011;8154;50.830;12.082;2022-07-29T16:09:05;2.63;;;2.40;;
16099;SDS011;8154;50.830;12.082;2022-07-29T16:11:53;2.70;;;2.50;;
16099;SDS011;8154;50.830;12.082;2022-07-29T16:14:42;3.00;;;2.80;;
16099;SDS011;8154;50.830;12.082;2022-07-29T16:17:29;2.70;;;2.50;;
16099;SDS011;8154;50.830;12.082;2022-07-29T16:20:15;2.80;;;2.60;;
16099;SDS011;8154;50.830;12.082;2022-07-29T16:23:06;2.95;;;2.72;;
16099;SDS011;8154;50.830;12.082;2022-07-29T16:25:56;6.22;;;5.63;;
16099;SDS011;8154;50.830;12.082;2022-07-29T16:28:41;5.40;;;4.90;;
16099;SDS011;8154;50.830;12.082;2022-07-29T16:31:26;5.18;;;4.72;;
16099;SDS011;8154;50.830;12.082;2022-07-29T16:34:12;4.93;;;4.53;;
16099;SDS011;8154;50.830;12.082;2022-07-29T16:36:59;5.70;;;5.20;;
16099;SDS011;8154;50.830;12.082;2022-07-29T16:39:45;7.47;;;5.72;;
16099;SDS011;8154;50.830;12.082;2022-07-29T16:42:31;6.82;;;6.22;;
16099;SDS011;8154;50.830;12.082;2022-07-29T16:45:16;6.55;;;5.95;;
16099;SDS011;8154;50.830;12.082;2022-07-29T16:48:02;6.82;;;6.22;;
16099;SDS011;8154;50.830;12.082;2022-07-29T16:50:47;5.30;;;4.90;;
16099;SDS011;8154;50.830;12.082;2022-07-29T16:53:32;5.63;;;5.13;;
16099;SDS011;8154;50.830;12.082;2022-07-29T16:56:17;5.68;;;5.18;;
16099;SDS011;8154;50.830;12.082;2022-07-29T16:59:02;5.20;;;4.80;;
16099;SDS011;8154;50.830;12.082;2022-07-29T17:01:47;6.90;;;4.97;;
16099;SDS011;8154;50.830;12.082;2022-07-29T17:04:32;5.38;;;4.97;;
16099;SDS011;8154;50.830;12.082;2022-07-29T17:07:17;5.18;;;4.38;;
16099;SDS011;8154;50.830;12.082;2022-07-29T17:10:03;5.10;;;4.57;;
16099;SDS011;8154;50.830;12.082;2022-07-29T17:12:50;5.93;;;5.03;;
16099;SDS011;8154;50.830;12.082;2022-07-29T17:15:36;6.15;;;5.65;;
16099;SDS011;8154;50.830;12.082;2022-07-29T17:18:22;9.10;;;8.20;;
16099;SDS011;8154;50.830;12.082;2022-07-29T17:21:10;8.82;;;7.97;;
16099;SDS011;8154;50.830;12.082;2022-07-29T17:23:56;11.85;;;10.68;;
16099;SDS011;8154;50.830;12.082;2022-07-29T17:26:45;22.77;;;20.38;;
16099;SDS011;8154;50.830;12.082;2022-07-29T17:29:30;19.17;;;17.20;;
16099;SDS011;8154;50.830;12.082;2022-07-29T17:32:32;21.63;;;19.58;;
16099;SDS011;8154;50.830;12.082;2022-07-29T17:35:21;17.50;;;15.70;;